createdAt,value
2019-06-20T00:00:09.436Z,20.41
2019-06-20T00:01:09.422Z,20.36
2019-06-20T00:02:09.412Z,20.38
2019-06-20T00:03:09.403Z,20.38
2019-06-20T00:04:09.415Z,20.39
2019-06-20T00:05:09.371Z,20.47
2019-06-20T00:06:09.381Z,20.47
2019-06-20T00:07:10.825Z,20.43
2019-06-20T00:08:09.342Z,20.48
2019-06-20T00:09:09.372Z,20.43
2019-06-20T00:10:09.322Z,20.43
2019-06-20T00:11:10.763Z,20.43
2019-06-20T00:12:09.323Z,20.47
2019-06-20T00:13:09.291Z,20.48
2019-06-20T00:14:09.540Z,20.48
2019-06-20T00:15:09.294Z,20.54
2019-06-20T00:16:09.258Z,20.48
2019-06-20T00:17:09.259Z,20.55
2019-06-20T00:18:09.245Z,20.55
2019-06-20T00:19:09.269Z,20.51
2019-06-20T00:20:09.226Z,20.52
2019-06-20T00:21:09.204Z,20.42
2019-06-20T00:22:09.195Z,20.38
2019-06-20T00:23:09.206Z,20.33
2019-06-20T00:24:09.200Z,20.36
2019-06-20T00:25:09.157Z,20.29
2019-06-20T00:26:10.296Z,20.26
2019-06-20T00:27:09.147Z,20.31
2019-06-20T00:28:09.133Z,20.29
2019-06-20T00:29:09.954Z,20.28
2019-06-20T00:30:10.454Z,20.28
2019-06-20T00:31:09.792Z,20.28
2019-06-20T00:32:09.096Z,20.29
2019-06-20T00:33:09.070Z,20.33
2019-06-20T00:34:09.102Z,20.32
2019-06-20T00:35:09.051Z,20.29
2019-06-20T00:36:09.039Z,20.28
2019-06-20T00:37:09.033Z,20.29
2019-06-20T00:38:09.016Z,20.29
2019-06-20T00:39:09.020Z,20.33
2019-06-20T00:40:09.791Z,20.36
2019-06-20T00:41:08.988Z,20.39
2019-06-20T00:42:08.977Z,20.48
2019-06-20T00:43:17.378Z,20.51
2019-06-20T00:44:09.957Z,20.47
2019-06-20T00:45:08.974Z,20.47
2019-06-20T00:46:08.927Z,20.47
2019-06-20T00:47:08.926Z,20.42
2019-06-20T00:48:08.906Z,20.39
2019-06-20T00:49:08.903Z,20.39
2019-06-20T00:50:08.940Z,20.38
2019-06-20T00:51:08.893Z,20.39
2019-06-20T00:52:08.915Z,20.47
2019-06-20T00:53:08.864Z,20.47
2019-06-20T00:54:08.863Z,20.36
2019-06-20T00:55:08.872Z,20.31
2019-06-20T00:56:08.832Z,20.18
2019-06-20T00:57:09.325Z,20.16
2019-06-20T00:58:08.810Z,20.13
2019-06-20T00:59:09.721Z,20.10
2019-06-20T01:00:08.830Z,20.11
2019-06-20T01:01:08.801Z,20.03
2019-06-20T01:02:08.780Z,20.13
2019-06-20T01:03:08.759Z,20.21
2019-06-20T01:04:08.752Z,20.26
2019-06-20T01:05:08.765Z,20.33
2019-06-20T01:06:08.718Z,20.36
2019-06-20T01:07:08.708Z,20.33
2019-06-20T01:08:08.706Z,20.31
2019-06-20T01:09:09.378Z,20.28
2019-06-20T01:10:09.365Z,20.14
2019-06-20T01:11:08.666Z,20.02
2019-06-20T01:12:08.655Z,19.87
2019-06-20T01:13:08.646Z,19.74
2019-06-20T01:14:08.635Z,19.73
2019-06-20T01:15:08.656Z,19.69
2019-06-20T01:16:08.612Z,19.76
2019-06-20T01:17:08.626Z,19.81
2019-06-20T01:18:08.591Z,19.91
2019-06-20T01:19:08.579Z,19.99
2019-06-20T01:20:08.599Z,20.01
2019-06-20T01:21:08.580Z,19.99
2019-06-20T01:22:10.009Z,19.98
2019-06-20T01:23:08.546Z,20.05
2019-06-20T01:24:08.530Z,20.06
2019-06-20T01:25:08.568Z,20.03
2019-06-20T01:26:08.519Z,19.98
2019-06-20T01:27:08.489Z,19.91
2019-06-20T01:28:08.486Z,19.81
2019-06-20T01:29:08.487Z,19.81
2019-06-20T01:30:08.517Z,19.84
2019-06-20T01:31:08.459Z,19.84
2019-06-20T01:32:08.458Z,19.91
2019-06-20T01:33:08.436Z,19.88
2019-06-20T01:34:08.426Z,19.88
2019-06-20T01:35:09.302Z,19.88
2019-06-20T01:36:08.413Z,19.91
2019-06-20T01:37:08.393Z,19.92
2019-06-20T01:38:08.381Z,19.88
2019-06-20T01:39:08.372Z,19.88
2019-06-20T01:40:08.906Z,19.92
2019-06-20T01:41:08.345Z,19.95
2019-06-20T01:42:08.343Z,19.99
2019-06-20T01:43:08.333Z,19.99
2019-06-20T01:44:08.322Z,19.98
2019-06-20T01:45:08.331Z,19.99
2019-06-20T01:46:09.152Z,19.99
2019-06-20T01:47:08.891Z,19.98
2019-06-20T01:48:08.272Z,19.94
2019-06-20T01:49:08.261Z,19.92
2019-06-20T01:50:08.278Z,19.91
2019-06-20T01:51:08.273Z,19.88
2019-06-20T01:52:08.232Z,19.88
2019-06-20T01:53:08.228Z,19.87
2019-06-20T01:54:08.218Z,19.83
2019-06-20T01:55:10.338Z,19.78
2019-06-20T01:56:08.217Z,19.76
2019-06-20T01:57:08.186Z,19.69
2019-06-20T01:58:08.195Z,19.63
2019-06-20T01:59:08.211Z,19.59
2019-06-20T02:00:08.181Z,19.58
2019-06-20T02:01:08.155Z,19.55
2019-06-20T02:02:08.155Z,19.56
2019-06-20T02:03:08.116Z,19.58
2019-06-20T02:04:08.125Z,19.55
2019-06-20T02:05:08.095Z,19.55
2019-06-20T02:06:08.113Z,19.54
2019-06-20T02:07:08.071Z,19.56
2019-06-20T02:08:08.079Z,19.59
2019-06-20T02:09:08.043Z,19.65
2019-06-20T02:10:08.031Z,19.68
2019-06-20T02:11:08.062Z,19.71
2019-06-20T02:12:08.011Z,19.73
2019-06-20T02:13:08.012Z,19.73
2019-06-20T02:14:08.080Z,19.76
2019-06-20T02:15:07.994Z,19.74
2019-06-20T02:16:08.029Z,19.71
2019-06-20T02:17:07.965Z,19.68
2019-06-20T02:18:07.960Z,19.66
2019-06-20T02:19:07.939Z,19.66
2019-06-20T02:20:07.949Z,19.65
2019-06-20T02:21:07.953Z,19.63
2019-06-20T02:22:07.918Z,19.66
2019-06-20T02:23:07.916Z,19.69
2019-06-20T02:24:07.905Z,19.73
2019-06-20T02:25:07.896Z,19.76
2019-06-20T02:26:07.895Z,19.77
2019-06-20T02:27:07.855Z,19.77
2019-06-20T02:28:07.844Z,19.76
2019-06-20T02:29:08.502Z,19.78
2019-06-20T02:30:07.824Z,19.78
2019-06-20T02:31:07.862Z,19.73
2019-06-20T02:32:07.803Z,19.78
2019-06-20T02:33:07.791Z,19.83
2019-06-20T02:34:07.815Z,19.88
2019-06-20T02:35:07.779Z,19.88
2019-06-20T02:36:07.761Z,19.91
2019-06-20T02:37:07.769Z,19.94
2019-06-20T02:38:07.731Z,19.91
2019-06-20T02:39:07.749Z,19.87
2019-06-20T02:40:07.709Z,19.81
2019-06-20T02:41:08.508Z,19.73
2019-06-20T02:42:07.724Z,19.69
2019-06-20T02:43:07.685Z,19.65
2019-06-20T02:44:24.756Z,19.62
2019-06-20T02:45:08.666Z,19.62
2019-06-20T02:46:07.672Z,19.65
2019-06-20T02:47:07.724Z,19.66
2019-06-20T02:48:07.639Z,19.68
2019-06-20T02:49:07.619Z,19.71
2019-06-20T02:50:07.606Z,19.69
2019-06-20T02:51:07.595Z,19.69
2019-06-20T02:52:07.622Z,19.74
2019-06-20T02:53:07.584Z,19.78
2019-06-20T02:54:07.580Z,19.74
2019-06-20T02:55:07.561Z,19.78
2019-06-20T02:56:07.544Z,19.83
2019-06-20T02:57:07.602Z,19.80
2019-06-20T02:58:07.557Z,19.83
2019-06-20T02:59:07.512Z,19.83
2019-06-20T03:00:08.044Z,19.84
2019-06-20T03:01:07.515Z,19.84
2019-06-20T03:02:07.618Z,19.87
2019-06-20T03:03:07.576Z,19.87
2019-06-20T03:04:07.458Z,19.88
2019-06-20T03:05:07.449Z,19.86
2019-06-20T03:06:07.456Z,19.84
2019-06-20T03:07:07.457Z,19.83
2019-06-20T03:08:07.417Z,19.80
2019-06-20T03:09:07.415Z,19.80
2019-06-20T03:10:07.394Z,19.83
2019-06-20T03:11:07.430Z,19.87
2019-06-20T03:12:07.395Z,19.88
2019-06-20T03:13:09.457Z,19.92
2019-06-20T03:14:07.346Z,19.94
2019-06-20T03:15:07.337Z,19.92
2019-06-20T03:16:07.348Z,19.95
2019-06-20T03:17:07.354Z,19.83
2019-06-20T03:18:07.373Z,19.77
2019-06-20T03:19:07.293Z,19.81
2019-06-20T03:20:07.334Z,19.87
2019-06-20T03:21:07.273Z,19.91
2019-06-20T03:22:07.334Z,19.96
2019-06-20T03:23:07.260Z,19.96
2019-06-20T03:24:07.242Z,19.98
2019-06-20T03:25:07.231Z,19.99
2019-06-20T03:26:07.220Z,20.01
2019-06-20T03:27:07.260Z,19.98
2019-06-20T03:28:07.210Z,19.99
2019-06-20T03:29:07.225Z,19.99
2019-06-20T03:30:07.952Z,20.01
2019-06-20T03:31:07.179Z,20.01
2019-06-20T03:32:08.049Z,20.02
2019-06-20T03:33:07.173Z,20.03
2019-06-20T03:34:07.170Z,20.05
2019-06-20T03:35:07.127Z,20.05
2019-06-20T03:36:08.069Z,20.06
2019-06-20T03:37:07.139Z,20.06
2019-06-20T03:38:07.103Z,19.94
2019-06-20T03:39:07.083Z,19.91
2019-06-20T03:40:07.074Z,19.86
2019-06-20T03:41:07.066Z,19.87
2019-06-20T03:42:07.094Z,19.73
2019-06-20T03:43:07.994Z,19.62
2019-06-20T03:44:07.024Z,19.59
2019-06-20T03:45:07.031Z,19.59
2019-06-20T03:46:07.024Z,19.65
2019-06-20T03:47:07.034Z,19.63
2019-06-20T03:48:06.991Z,19.73
2019-06-20T03:49:06.979Z,19.76
2019-06-20T03:50:06.975Z,19.74
2019-06-20T03:51:06.957Z,19.77
2019-06-20T03:52:06.979Z,19.71
2019-06-20T03:53:06.942Z,19.62
2019-06-20T03:54:06.929Z,19.54
2019-06-20T03:55:06.917Z,19.39
2019-06-20T03:56:06.906Z,19.29
2019-06-20T03:57:06.920Z,19.19
2019-06-20T03:58:06.876Z,19.10
2019-06-20T03:59:06.878Z,19.02
2019-06-20T04:00:06.864Z,18.87
2019-06-20T04:01:06.844Z,18.73
2019-06-20T04:02:06.835Z,18.66
2019-06-20T04:03:06.893Z,18.57
2019-06-20T04:04:06.813Z,18.52
2019-06-20T04:05:06.817Z,18.55
2019-06-20T04:06:06.817Z,18.54
2019-06-20T04:07:07.633Z,18.51
2019-06-20T04:08:06.848Z,18.48
2019-06-20T04:09:06.761Z,18.54
2019-06-20T04:10:06.807Z,18.52
2019-06-20T04:11:06.734Z,18.55
2019-06-20T04:12:06.729Z,18.58
2019-06-20T04:13:06.742Z,18.62
2019-06-20T04:14:06.710Z,18.62
2019-06-20T04:15:18.447Z,18.62
2019-06-20T04:16:08.277Z,18.66
2019-06-20T04:17:06.686Z,18.65
2019-06-20T04:18:06.704Z,18.72
2019-06-20T04:19:06.691Z,18.72
2019-06-20T04:20:06.664Z,18.69
2019-06-20T04:21:06.658Z,18.69
2019-06-20T04:22:06.631Z,18.76
2019-06-20T04:23:06.635Z,18.82
2019-06-20T04:24:06.595Z,18.88
2019-06-20T04:25:06.628Z,18.85
2019-06-20T04:26:06.590Z,18.85
2019-06-20T04:27:06.579Z,18.82
2019-06-20T04:28:06.593Z,18.81
2019-06-20T04:29:06.569Z,18.82
2019-06-20T04:30:06.694Z,18.80
2019-06-20T04:31:07.124Z,18.78
2019-06-20T04:32:06.560Z,18.80
2019-06-20T04:33:06.531Z,18.81
2019-06-20T04:34:07.223Z,18.88
2019-06-20T04:35:06.508Z,18.87
2019-06-20T04:36:06.471Z,18.76
2019-06-20T04:37:06.457Z,18.66
2019-06-20T04:38:06.908Z,18.66
2019-06-20T04:39:18.662Z,18.69
2019-06-20T04:40:07.437Z,18.69
2019-06-20T04:41:06.409Z,18.70
2019-06-20T04:42:06.407Z,18.72
2019-06-20T04:43:06.425Z,18.70
2019-06-20T04:44:06.386Z,18.72
2019-06-20T04:45:06.376Z,18.73
2019-06-20T04:46:06.367Z,18.78
2019-06-20T04:47:07.255Z,18.76
2019-06-20T04:48:06.376Z,18.72
2019-06-20T04:49:06.328Z,18.72
2019-06-20T04:50:07.216Z,18.70
2019-06-20T04:51:06.304Z,18.69
2019-06-20T04:52:06.308Z,18.73
2019-06-20T04:53:06.314Z,18.73
2019-06-20T04:54:06.285Z,18.75
2019-06-20T04:55:06.288Z,18.72
2019-06-20T04:56:06.278Z,18.70
2019-06-20T04:57:06.246Z,18.72
2019-06-20T04:58:06.281Z,18.70
2019-06-20T04:59:06.781Z,18.73
2019-06-20T05:00:06.220Z,18.73
2019-06-20T05:01:06.211Z,18.75
2019-06-20T05:02:06.230Z,18.76
2019-06-20T05:03:06.219Z,18.81
2019-06-20T05:04:06.181Z,18.82
2019-06-20T05:05:06.171Z,18.84
2019-06-20T05:06:06.170Z,18.85
2019-06-20T05:07:06.138Z,18.92
2019-06-20T05:08:06.581Z,18.90
2019-06-20T05:09:06.137Z,18.95
2019-06-20T05:10:06.117Z,18.98
2019-06-20T05:11:06.095Z,19.00
2019-06-20T05:12:06.095Z,19.04
2019-06-20T05:13:06.080Z,19.02
2019-06-20T05:14:06.093Z,19.06
2019-06-20T05:15:06.046Z,19.06
2019-06-20T05:16:06.082Z,19.06
2019-06-20T05:17:07.253Z,19.07
2019-06-20T05:18:06.024Z,19.08
2019-06-20T05:19:06.042Z,19.07
2019-06-20T05:20:06.002Z,19.06
2019-06-20T05:21:05.993Z,19.07
2019-06-20T05:22:05.980Z,19.07
2019-06-20T05:23:05.975Z,19.08
2019-06-20T05:24:06.000Z,19.10
2019-06-20T05:25:06.827Z,19.08
2019-06-20T05:26:05.939Z,19.10
2019-06-20T05:27:05.936Z,19.16
2019-06-20T05:28:05.909Z,19.22
2019-06-20T05:29:05.939Z,19.25
2019-06-20T05:30:05.898Z,19.29
2019-06-20T05:31:05.909Z,19.32
2019-06-20T05:32:05.876Z,19.33
2019-06-20T05:33:05.889Z,19.33
2019-06-20T05:34:05.892Z,19.37
2019-06-20T05:35:05.844Z,19.39
2019-06-20T05:36:05.826Z,19.41
2019-06-20T05:37:06.736Z,19.47
2019-06-20T05:38:05.838Z,19.48
2019-06-20T05:39:05.844Z,19.54
2019-06-20T05:40:05.793Z,19.55
2019-06-20T05:41:05.831Z,19.56
2019-06-20T05:42:05.770Z,19.56
2019-06-20T05:43:05.774Z,19.61
2019-06-20T05:44:05.784Z,19.66
2019-06-20T05:45:05.742Z,19.74
2019-06-20T05:46:10.773Z,19.77
2019-06-20T05:47:12.606Z,19.83
2019-06-20T05:48:07.622Z,19.84
2019-06-20T05:49:05.739Z,19.87
2019-06-20T05:50:05.679Z,19.88
2019-06-20T05:51:06.362Z,19.86
2019-06-20T05:52:05.676Z,19.84
2019-06-20T05:53:05.990Z,19.81
2019-06-20T05:54:05.675Z,19.84
2019-06-20T05:55:05.864Z,19.80
2019-06-20T05:56:05.616Z,19.87
2019-06-20T05:57:05.607Z,19.87
2019-06-20T05:58:05.590Z,19.86
2019-06-20T05:59:05.619Z,19.88
2019-06-20T06:00:05.598Z,19.95
2019-06-20T06:01:05.563Z,20.02
2019-06-20T06:02:05.554Z,20.06
2019-06-20T06:03:07.272Z,20.10
2019-06-20T06:04:05.574Z,20.17
2019-06-20T06:05:05.540Z,20.23
2019-06-20T06:06:05.510Z,20.29
2019-06-20T06:07:05.502Z,20.32
2019-06-20T06:08:06.823Z,20.39
2019-06-20T06:09:05.502Z,20.48
2019-06-20T06:10:05.638Z,20.54
2019-06-20T06:11:05.451Z,20.59
2019-06-20T06:12:06.000Z,20.62
2019-06-20T06:13:05.444Z,20.61
2019-06-20T06:14:05.450Z,20.59
2019-06-20T06:15:07.344Z,20.64
2019-06-20T06:16:05.437Z,20.64
2019-06-20T06:17:05.397Z,20.62
2019-06-20T06:18:05.400Z,20.67
2019-06-20T06:19:05.408Z,20.70
2019-06-20T06:20:05.367Z,20.66
2019-06-20T06:21:05.367Z,20.70
2019-06-20T06:22:05.368Z,20.70
2019-06-20T06:23:05.853Z,20.66
2019-06-20T06:24:05.394Z,20.58
2019-06-20T06:25:05.366Z,20.54
2019-06-20T06:26:05.848Z,20.47
2019-06-20T06:27:05.296Z,20.41
2019-06-20T06:28:05.314Z,20.35
2019-06-20T06:29:05.280Z,20.35
2019-06-20T06:30:06.074Z,20.38
2019-06-20T06:31:05.280Z,20.36
2019-06-20T06:32:05.232Z,20.26
2019-06-20T06:33:05.223Z,20.20
2019-06-20T06:34:05.213Z,20.26
2019-06-20T06:35:05.237Z,20.28
2019-06-20T06:36:05.214Z,20.24
2019-06-20T06:37:05.176Z,20.32
2019-06-20T06:38:05.189Z,20.50
2019-06-20T06:39:05.150Z,20.59
2019-06-20T06:40:05.168Z,20.52
2019-06-20T06:41:05.138Z,20.42
2019-06-20T06:42:05.131Z,20.51
2019-06-20T06:43:06.069Z,20.54
2019-06-20T06:44:07.614Z,20.59
2019-06-20T06:45:06.068Z,20.72
2019-06-20T06:46:06.070Z,20.95
2019-06-20T06:47:05.088Z,20.97
2019-06-20T06:48:05.063Z,20.80
2019-06-20T06:49:05.053Z,20.82
2019-06-20T06:50:05.085Z,20.77
2019-06-20T06:51:05.025Z,20.76
2019-06-20T06:52:05.023Z,20.77
2019-06-20T06:53:05.013Z,20.69
2019-06-20T06:54:05.043Z,20.74
2019-06-20T06:55:05.012Z,20.80
2019-06-20T06:56:04.980Z,20.79
2019-06-20T06:57:04.985Z,20.76
2019-06-20T06:58:05.019Z,20.88
2019-06-20T06:59:04.942Z,20.99
2019-06-20T07:00:04.971Z,20.95
2019-06-20T07:01:05.563Z,20.97
2019-06-20T07:02:04.923Z,21.21
2019-06-20T07:03:04.910Z,21.34
2019-06-20T07:04:04.899Z,21.44
2019-06-20T07:05:05.028Z,21.53
2019-06-20T07:06:04.877Z,21.58
2019-06-20T07:07:04.862Z,21.69
2019-06-20T07:08:05.717Z,21.69
2019-06-20T07:09:04.837Z,21.92
2019-06-20T07:10:05.565Z,22.00
2019-06-20T07:11:04.862Z,22.09
2019-06-20T07:12:04.821Z,22.05
2019-06-20T07:13:04.797Z,21.92
2019-06-20T07:14:04.805Z,22.18
2019-06-20T07:15:04.838Z,22.15
2019-06-20T07:16:05.553Z,22.21
2019-06-20T07:17:04.766Z,22.20
2019-06-20T07:18:05.622Z,22.20
2019-06-20T07:19:05.563Z,22.05
2019-06-20T07:20:05.554Z,22.12
2019-06-20T07:21:04.703Z,21.96
2019-06-20T07:22:04.701Z,21.77
2019-06-20T07:23:04.715Z,21.84
2019-06-20T07:24:04.710Z,21.84
2019-06-20T07:25:04.700Z,21.86
2019-06-20T07:26:04.662Z,21.94
2019-06-20T07:27:04.661Z,22.05
2019-06-20T07:28:04.638Z,22.14
2019-06-20T07:29:04.630Z,22.15
2019-06-20T07:30:04.703Z,22.42
2019-06-20T07:31:04.683Z,22.65
2019-06-20T07:32:04.660Z,22.75
2019-06-20T07:33:04.587Z,23.02
2019-06-20T07:34:04.575Z,23.31
2019-06-20T07:35:04.598Z,23.53
2019-06-20T07:36:04.554Z,23.65
2019-06-20T07:37:04.536Z,23.72
2019-06-20T07:38:04.536Z,23.75
2019-06-20T07:39:04.535Z,23.63
2019-06-20T07:40:04.515Z,23.80
2019-06-20T07:41:04.553Z,23.78
2019-06-20T07:42:04.493Z,23.70
2019-06-20T07:43:04.473Z,23.75
2019-06-20T07:44:04.465Z,23.94
2019-06-20T07:45:05.282Z,24.15
2019-06-20T07:46:05.279Z,24.42
2019-06-20T07:47:17.095Z,24.60
2019-06-20T07:48:05.420Z,24.67
2019-06-20T07:49:05.300Z,24.71
2019-06-20T07:50:04.447Z,24.88
2019-06-20T07:51:04.446Z,24.88
2019-06-20T07:52:04.400Z,24.87
2019-06-20T07:53:04.420Z,24.95
2019-06-20T07:54:05.250Z,25.06
2019-06-20T07:55:04.394Z,25.15
2019-06-20T07:56:04.862Z,25.24
2019-06-20T07:57:04.340Z,25.39
2019-06-20T07:58:04.321Z,25.50
2019-06-20T07:59:05.131Z,25.52
2019-06-20T08:00:04.301Z,25.60
2019-06-20T08:01:04.318Z,25.06
2019-06-20T08:02:04.296Z,25.30
2019-06-20T08:03:04.266Z,25.52
2019-06-20T08:04:04.256Z,25.65
2019-06-20T08:05:04.245Z,25.85
2019-06-20T08:06:04.280Z,25.98
2019-06-20T08:07:04.224Z,26.15
2019-06-20T08:08:04.223Z,25.97
2019-06-20T08:09:04.747Z,26.10
2019-06-20T08:10:04.389Z,26.25
2019-06-20T08:11:04.214Z,26.36
2019-06-20T08:12:04.183Z,26.09
2019-06-20T08:13:04.166Z,25.83
2019-06-20T08:14:04.147Z,26.05
2019-06-20T08:15:14.465Z,26.09
2019-06-20T08:16:05.171Z,26.23
2019-06-20T08:17:04.161Z,26.17
2019-06-20T08:18:04.106Z,26.30
2019-06-20T08:19:04.131Z,26.12
2019-06-20T08:20:04.091Z,26.25
2019-06-20T08:21:04.459Z,26.30
2019-06-20T08:22:04.751Z,26.43
2019-06-20T08:23:04.069Z,26.39
2019-06-20T08:24:04.087Z,26.54
2019-06-20T08:25:05.285Z,26.73
2019-06-20T08:26:04.554Z,26.69
2019-06-20T08:27:04.920Z,26.25
2019-06-20T08:28:04.370Z,26.09
2019-06-20T08:29:14.937Z,26.26
2019-06-20T08:30:05.227Z,26.50
2019-06-20T08:31:04.821Z,26.54
2019-06-20T08:32:04.725Z,26.66
2019-06-20T08:33:09.653Z,26.81
2019-06-20T08:34:04.984Z,26.62
2019-06-20T08:35:04.727Z,26.52
2019-06-20T08:36:04.570Z,26.25
2019-06-20T08:37:04.388Z,26.12
2019-06-20T08:38:05.591Z,26.44
2019-06-20T08:39:04.495Z,26.48
2019-06-20T08:40:04.230Z,26.63
2019-06-20T08:41:04.613Z,26.87
2019-06-20T08:42:04.330Z,27.04
2019-06-20T08:43:04.198Z,27.21
2019-06-20T08:44:03.967Z,27.24
2019-06-20T08:45:06.050Z,27.00
2019-06-20T08:46:04.529Z,26.89
2019-06-20T08:47:03.947Z,26.94
2019-06-20T08:48:04.735Z,27.03
2019-06-20T08:49:03.780Z,26.94
2019-06-20T08:50:03.929Z,26.97
2019-06-20T08:51:04.521Z,26.97
2019-06-20T08:52:03.768Z,27.07
2019-06-20T08:53:03.778Z,27.00
2019-06-20T08:54:03.730Z,26.75
2019-06-20T08:55:03.755Z,26.94
2019-06-20T08:56:05.423Z,27.07
2019-06-20T08:57:05.727Z,27.03
2019-06-20T08:58:05.449Z,27.09
2019-06-20T08:59:04.781Z,27.07
2019-06-20T09:04:03.633Z,26.57
2019-06-20T09:09:04.477Z,26.26
2019-06-20T09:10:04.254Z,26.35
2019-06-20T09:11:04.062Z,26.52
2019-06-20T09:12:05.002Z,26.75
2019-06-20T09:13:03.828Z,26.69
2019-06-20T09:14:04.095Z,26.60
2019-06-20T09:15:04.342Z,26.73
2019-06-20T09:16:03.501Z,26.75
2019-06-20T09:17:03.521Z,26.73
2019-06-20T09:18:03.530Z,26.65
2019-06-20T09:19:03.459Z,26.44
2019-06-20T09:20:03.457Z,26.40
2019-06-20T09:21:03.454Z,26.44
2019-06-20T09:22:05.026Z,26.40
2019-06-20T09:23:03.428Z,26.45
2019-06-20T09:24:04.181Z,26.52
2019-06-20T09:25:03.418Z,26.57
2019-06-20T09:26:03.891Z,26.47
2019-06-20T09:27:04.273Z,26.48
2019-06-20T09:28:03.375Z,26.66
2019-06-20T09:29:04.147Z,26.63
2019-06-20T09:30:03.608Z,26.55
2019-06-20T09:31:04.125Z,26.52
2019-06-20T09:32:04.649Z,26.44
2019-06-20T09:33:04.281Z,26.30
2019-06-20T09:34:05.301Z,26.50
2019-06-20T09:35:03.292Z,26.69
2019-06-20T09:36:04.012Z,26.58
2019-06-20T09:37:04.037Z,26.84
2019-06-20T09:38:03.508Z,26.92
2019-06-20T09:39:03.797Z,26.87
2019-06-20T09:40:03.652Z,26.89
2019-06-20T09:41:03.487Z,27.04
2019-06-20T09:42:03.476Z,27.10
2019-06-20T09:43:03.292Z,27.14
2019-06-20T09:44:03.241Z,27.21
2019-06-20T09:45:03.196Z,27.32
2019-06-20T09:46:03.191Z,27.59
2019-06-20T09:47:03.199Z,27.57
2019-06-20T09:48:03.159Z,27.10
2019-06-20T09:49:03.149Z,27.12
2019-06-20T09:50:03.150Z,26.92
2019-06-20T09:51:03.129Z,26.94
2019-06-20T09:52:03.149Z,27.04
2019-06-20T09:53:03.106Z,27.13
2019-06-20T09:54:03.090Z,27.19
2019-06-20T09:55:03.105Z,27.19
2019-06-20T09:56:03.177Z,27.25
2019-06-20T09:57:03.101Z,27.34
2019-06-20T09:58:03.054Z,27.24
2019-06-20T09:59:04.027Z,27.29
2019-06-20T10:00:10.008Z,27.41
2019-06-20T10:01:04.036Z,27.39
2019-06-20T10:02:03.014Z,27.49
2019-06-20T10:03:03.117Z,27.41
2019-06-20T10:04:03.037Z,27.54
2019-06-20T10:05:02.977Z,27.62
2019-06-20T10:06:13.474Z,27.55
2019-06-20T10:07:03.963Z,27.39
2019-06-20T10:08:02.976Z,27.62
2019-06-20T10:09:02.943Z,27.47
2019-06-20T10:10:02.924Z,27.49
2019-06-20T10:11:03.544Z,27.34
2019-06-20T10:12:02.929Z,27.07
2019-06-20T10:13:02.933Z,27.04
2019-06-20T10:14:02.886Z,27.17
2019-06-20T10:15:02.948Z,27.19
2019-06-20T10:16:02.961Z,27.24
2019-06-20T10:17:02.842Z,27.40
2019-06-20T10:18:02.860Z,27.57
2019-06-20T10:19:02.829Z,27.79
2019-06-20T10:20:02.883Z,27.99
2019-06-20T10:21:02.868Z,28.04
2019-06-20T10:22:02.799Z,28.14
2019-06-20T10:23:03.546Z,27.94
2019-06-20T10:24:02.809Z,27.49
2019-06-20T10:25:02.765Z,27.41
2019-06-20T10:26:02.757Z,27.32
2019-06-20T10:27:02.741Z,27.46
2019-06-20T10:28:02.813Z,27.22
2019-06-20T10:29:02.805Z,27.44
2019-06-20T10:30:13.811Z,27.74
2019-06-20T10:31:03.707Z,27.88
2019-06-20T10:32:02.692Z,27.99
2019-06-20T10:33:02.713Z,28.29
2019-06-20T10:34:02.695Z,28.46
2019-06-20T10:35:03.935Z,28.62
2019-06-20T10:36:02.654Z,28.55
2019-06-20T10:37:03.500Z,28.27
2019-06-20T10:38:02.692Z,28.03
2019-06-20T10:39:02.615Z,28.15
2019-06-20T10:40:02.688Z,28.18
2019-06-20T10:41:02.602Z,28.21
2019-06-20T10:42:02.606Z,28.34
2019-06-20T10:43:02.605Z,28.39
2019-06-20T10:44:02.560Z,28.43
2019-06-20T10:45:02.551Z,28.49
2019-06-20T10:46:02.585Z,28.62
2019-06-20T10:47:02.710Z,28.49
2019-06-20T10:48:09.564Z,28.40
2019-06-20T10:49:02.503Z,28.30
2019-06-20T10:50:02.521Z,28.25
2019-06-20T10:51:02.555Z,28.17
2019-06-20T10:52:02.474Z,28.18
2019-06-20T10:53:02.496Z,28.31
2019-06-20T10:54:02.496Z,28.44
2019-06-20T10:55:02.445Z,28.49
2019-06-20T10:56:02.522Z,28.44
2019-06-20T10:57:02.431Z,28.68
2019-06-20T10:58:03.241Z,28.56
2019-06-20T10:59:02.422Z,28.56
2019-06-20T11:00:02.429Z,28.61
2019-06-20T11:01:02.374Z,28.73
2019-06-20T11:02:02.363Z,29.34
2019-06-20T11:03:02.351Z,29.28
2019-06-20T11:04:02.432Z,29.55
2019-06-20T11:05:02.332Z,29.86
2019-06-20T11:06:02.368Z,30.13
2019-06-20T11:07:02.316Z,30.20
2019-06-20T11:08:02.310Z,30.51
2019-06-20T11:09:03.230Z,30.45
2019-06-20T11:10:02.286Z,30.61
2019-06-20T11:11:02.276Z,30.55
2019-06-20T11:12:02.267Z,30.20
2019-06-20T11:13:02.248Z,30.04
2019-06-20T11:14:02.268Z,30.20
2019-06-20T11:15:02.245Z,30.31
2019-06-20T11:16:02.216Z,30.38
2019-06-20T11:17:02.751Z,30.45
2019-06-20T11:18:02.465Z,30.76
2019-06-20T11:19:02.215Z,30.84
2019-06-20T11:20:03.071Z,30.26
2019-06-20T11:21:02.212Z,30.17
2019-06-20T11:22:02.239Z,30.27
2019-06-20T11:23:02.275Z,30.31
2019-06-20T11:24:02.781Z,29.90
2019-06-20T11:25:02.122Z,29.65
2019-06-20T11:26:02.118Z,29.68
2019-06-20T11:27:02.103Z,29.79
2019-06-20T11:28:02.099Z,29.63
2019-06-20T11:29:02.111Z,29.67
2019-06-20T11:30:02.071Z,29.73
2019-06-20T11:31:02.062Z,29.31
2019-06-20T11:32:02.061Z,29.31
2019-06-20T11:33:02.065Z,29.57
2019-06-20T11:34:02.062Z,29.83
2019-06-20T11:35:02.020Z,30.02
2019-06-20T11:36:02.082Z,30.04
2019-06-20T11:37:02.008Z,29.98
2019-06-20T11:38:01.996Z,30.02
2019-06-20T11:39:02.069Z,29.80
2019-06-20T11:40:02.007Z,29.55
2019-06-20T11:41:01.969Z,29.43
2019-06-20T11:42:01.985Z,29.23
2019-06-20T11:43:01.942Z,29.19
2019-06-20T11:44:02.005Z,29.15
2019-06-20T11:45:01.947Z,29.27
2019-06-20T11:46:01.908Z,29.36
2019-06-20T11:47:01.896Z,29.42
2019-06-20T11:48:01.928Z,28.70
2019-06-20T11:49:01.883Z,28.85
2019-06-20T11:50:01.987Z,28.88
2019-06-20T11:51:01.902Z,28.96
2019-06-20T11:52:02.769Z,28.81
2019-06-20T11:53:01.872Z,28.66
2019-06-20T11:54:01.824Z,28.66
2019-06-20T11:55:01.915Z,28.74
2019-06-20T11:56:02.451Z,28.85
2019-06-20T11:57:01.795Z,29.04
2019-06-20T11:58:01.784Z,29.05
2019-06-20T11:59:01.772Z,29.26
2019-06-20T12:00:01.793Z,29.16
2019-06-20T12:01:03.886Z,29.74
2019-06-20T12:02:01.753Z,30.11
2019-06-20T12:03:01.732Z,30.49
2019-06-20T12:04:01.722Z,30.69
2019-06-20T12:05:01.758Z,30.77
2019-06-20T12:06:01.708Z,30.99
2019-06-20T12:07:01.690Z,31.28
2019-06-20T12:08:02.392Z,31.48
2019-06-20T12:09:02.401Z,31.68
2019-06-20T12:10:01.690Z,31.75
2019-06-20T12:11:01.676Z,31.68
2019-06-20T12:12:01.636Z,31.85
2019-06-20T12:13:01.641Z,31.89
2019-06-20T12:14:01.620Z,32.01
2019-06-20T12:15:01.630Z,32.21
2019-06-20T12:16:01.588Z,32.35
2019-06-20T12:17:01.588Z,32.33
2019-06-20T12:18:01.582Z,32.33
2019-06-20T12:19:01.574Z,32.25
2019-06-20T12:20:01.611Z,32.25
2019-06-20T12:21:01.546Z,32.41
2019-06-20T12:22:01.534Z,32.40
2019-06-20T12:23:01.528Z,32.40
2019-06-20T12:24:01.516Z,32.00
2019-06-20T12:25:01.525Z,31.89
2019-06-20T12:26:01.496Z,31.69
2019-06-20T12:27:02.454Z,31.39
2019-06-20T12:28:01.509Z,31.41
2019-06-20T12:29:01.462Z,31.50
2019-06-20T12:30:02.305Z,31.56
2019-06-20T12:31:01.469Z,31.50
2019-06-20T12:32:01.423Z,31.44
2019-06-20T12:33:01.595Z,31.32
2019-06-20T12:34:01.411Z,31.26
2019-06-20T12:35:01.433Z,31.29
2019-06-20T12:36:01.449Z,31.20
2019-06-20T12:37:01.372Z,31.09
2019-06-20T12:38:01.413Z,31.16
2019-06-20T12:39:01.358Z,31.38
2019-06-20T12:40:01.379Z,31.51
2019-06-20T12:41:01.859Z,31.53
2019-06-20T12:42:01.338Z,31.43
2019-06-20T12:43:01.319Z,31.58
2019-06-20T12:44:01.430Z,31.68
2019-06-20T12:45:01.836Z,31.70
2019-06-20T12:46:01.940Z,31.41
2019-06-20T12:47:02.228Z,31.32
2019-06-20T12:48:01.265Z,31.25
2019-06-20T12:49:01.259Z,31.13
2019-06-20T12:50:01.912Z,30.97
2019-06-20T12:51:01.235Z,30.80
2019-06-20T12:52:01.219Z,30.72
2019-06-20T12:53:01.757Z,30.64
2019-06-20T12:54:01.208Z,30.61
2019-06-20T12:55:01.224Z,30.54
2019-06-20T12:56:01.188Z,30.89
2019-06-20T12:57:01.177Z,31.04
2019-06-20T12:58:01.164Z,31.12
2019-06-20T12:59:01.211Z,31.13
2019-06-20T13:00:01.197Z,31.09